createdAt,value
2023-04-16T00:00:37.413Z,97541.53
2023-04-16T00:03:05.331Z,97543.97
2023-04-16T00:05:33.145Z,97538.31
2023-04-16T00:08:00.754Z,97541.66
2023-04-16T00:10:28.333Z,97546.56
2023-04-16T00:12:55.817Z,97544.84
2023-04-16T00:15:23.682Z,97545.41
2023-04-16T00:17:51.250Z,97541.84
2023-04-16T00:20:20.331Z,97542.22
2023-04-16T00:22:47.816Z,97543.97
2023-04-16T00:25:15.489Z,97541.53
2023-04-16T00:27:43.004Z,97548.38
2023-04-16T00:30:10.899Z,97553.84
2023-04-16T00:32:38.435Z,97548.22
2023-04-16T00:35:06.727Z,97549.03
2023-04-16T00:37:34.196Z,97548.19
2023-04-16T00:40:01.918Z,97545.97
2023-04-16T00:42:29.406Z,97542.50
2023-04-16T00:44:56.889Z,97539.72
2023-04-16T00:47:25.321Z,97540.25
2023-04-16T00:49:52.879Z,97550.78
2023-04-16T00:52:20.356Z,97554.81
2023-04-16T00:54:48.543Z,97548.50
2023-04-16T00:57:16.398Z,97551.09
2023-04-16T00:59:43.969Z,97554.59
2023-04-16T01:02:12.551Z,97548.03
2023-04-16T01:04:40.200Z,97554.69
2023-04-16T01:07:07.683Z,97553.69
2023-04-16T01:09:35.418Z,97551.81
2023-04-16T01:12:04.171Z,97545.53
2023-04-16T01:14:36.109Z,97552.91
2023-04-16T01:17:04.484Z,97551.34
2023-04-16T01:19:32.272Z,97558.44
2023-04-16T01:21:59.727Z,97546.88
2023-04-16T01:24:27.260Z,97554.31
2023-04-16T01:26:54.731Z,97561.91
2023-04-16T01:29:22.204Z,97566.00
2023-04-16T01:31:51.052Z,97563.09
2023-04-16T01:34:36.740Z,97558.91
2023-04-16T01:37:04.341Z,97560.69
2023-04-16T01:39:31.856Z,97560.00
2023-04-16T01:41:59.326Z,97562.31
2023-04-16T01:44:26.859Z,97569.78
2023-04-16T01:46:54.546Z,97574.41
2023-04-16T01:49:23.357Z,97572.28
2023-04-16T01:51:51.508Z,97568.66
2023-04-16T01:54:18.997Z,97568.16
2023-04-16T01:56:46.842Z,97571.59
2023-04-16T01:59:14.354Z,97577.03
2023-04-16T02:01:43.220Z,97568.34
2023-04-16T02:04:11.930Z,97568.66
2023-04-16T02:06:39.956Z,97570.81
2023-04-16T02:09:07.681Z,97573.13
2023-04-16T02:11:35.349Z,97569.59
2023-04-16T02:14:02.867Z,97575.41
2023-04-16T02:16:31.119Z,97574.41
2023-04-16T02:19:21.764Z,97574.81
2023-04-16T02:21:51.131Z,97569.41
2023-04-16T02:24:19.916Z,97579.53
2023-04-16T02:26:48.215Z,97578.94
2023-04-16T02:29:19.404Z,97576.69
2023-04-16T02:31:53.031Z,97571.13
2023-04-16T02:34:21.081Z,97570.22
2023-04-16T02:36:48.887Z,97572.28
2023-04-16T02:39:17.254Z,97581.63
2023-04-16T02:41:44.808Z,97580.41
2023-04-16T02:44:12.295Z,97579.72
2023-04-16T02:46:39.846Z,97579.41
2023-04-16T02:49:07.479Z,97585.94
2023-04-16T02:51:35.160Z,97580.63
2023-04-16T02:54:03.108Z,97590.06
2023-04-16T02:56:31.620Z,97585.69
2023-04-16T02:58:59.137Z,97591.19
2023-04-16T03:01:28.396Z,97587.16
2023-04-16T03:03:56.414Z,97585.00
2023-04-16T03:06:24.037Z,97597.00
2023-04-16T03:08:51.587Z,97601.50
2023-04-16T03:11:20.248Z,97594.13
2023-04-16T03:13:47.845Z,97591.53
2023-04-16T03:16:15.629Z,97595.63
2023-04-16T03:18:43.308Z,97595.63
2023-04-16T03:21:11.046Z,97604.09
2023-04-16T03:23:38.848Z,97597.94
2023-04-16T03:26:06.446Z,97600.72
2023-04-16T03:28:34.138Z,97604.94
2023-04-16T03:31:01.660Z,97599.84
2023-04-16T03:33:29.287Z,97604.72
2023-04-16T03:35:58.289Z,97605.13
2023-04-16T03:38:27.953Z,97611.78
2023-04-16T03:40:57.632Z,97615.84
2023-04-16T03:43:25.556Z,97618.84
2023-04-16T03:45:53.292Z,97610.78
2023-04-16T03:48:23.920Z,97621.44
2023-04-16T03:50:51.476Z,97611.91
2023-04-16T03:53:20.670Z,97606.66
2023-04-16T03:55:52.972Z,97617.31
2023-04-16T03:58:21.754Z,97612.03
2023-04-16T04:00:49.329Z,97614.19
2023-04-16T04:03:18.607Z,97613.34
2023-04-16T04:05:48.721Z,97617.97
2023-04-16T04:08:21.182Z,97617.34
2023-04-16T04:10:48.777Z,97616.03
2023-04-16T04:13:16.468Z,97615.25
2023-04-16T04:15:44.938Z,97622.91
2023-04-16T04:18:12.490Z,97638.31
2023-04-16T04:20:41.326Z,97632.09
2023-04-16T04:23:09.487Z,97631.28
2023-04-16T04:25:37.030Z,97623.06
2023-04-16T04:28:04.803Z,97630.81
2023-04-16T04:30:32.302Z,97631.41
2023-04-16T04:32:59.960Z,97627.66
2023-04-16T04:35:28.271Z,97627.78
2023-04-16T04:37:56.113Z,97646.06
2023-04-16T04:40:23.612Z,97641.41
2023-04-16T04:42:53.182Z,97645.56
2023-04-16T04:45:25.571Z,97644.16
2023-04-16T04:47:54.556Z,97646.50
2023-04-16T04:50:22.366Z,97647.94
2023-04-16T04:52:49.880Z,97656.34
2023-04-16T04:55:17.465Z,97657.13
2023-04-16T04:57:44.969Z,97663.25
2023-04-16T05:00:12.978Z,97658.81
2023-04-16T05:02:48.502Z,97669.22
2023-04-16T05:05:16.305Z,97664.88
2023-04-16T05:07:44.735Z,97671.03
2023-04-16T05:10:12.318Z,97670.09
2023-04-16T05:12:40.069Z,97676.22
2023-04-16T05:15:08.491Z,97666.84
2023-04-16T05:17:35.986Z,97678.59
2023-04-16T05:20:03.658Z,97678.69
2023-04-16T05:22:31.170Z,97686.41
2023-04-16T05:24:58.679Z,97686.72
2023-04-16T05:27:26.135Z,97687.72
2023-04-16T05:29:53.685Z,97692.00
2023-04-16T05:32:21.175Z,97694.66
2023-04-16T05:34:48.678Z,97709.97
2023-04-16T05:37:16.172Z,97703.16
2023-04-16T05:39:43.693Z,97699.72
2023-04-16T05:42:11.180Z,97703.38
2023-04-16T05:44:38.812Z,97704.25
2023-04-16T05:47:09.194Z,97702.69
2023-04-16T05:49:40.010Z,97717.50
2023-04-16T05:52:07.481Z,97716.72
2023-04-16T05:54:35.344Z,97713.78
2023-04-16T05:57:03.719Z,97725.03
2023-04-16T05:59:31.301Z,97725.97
2023-04-16T06:01:58.894Z,97724.78
2023-04-16T06:04:26.511Z,97734.03
2023-04-16T06:06:53.991Z,97724.63
2023-04-16T06:09:21.529Z,97733.44
2023-04-16T06:11:49.373Z,97739.75
2023-04-16T06:14:16.986Z,97736.41
2023-04-16T06:16:44.492Z,97742.53
2023-04-16T06:19:12.148Z,97735.53
2023-04-16T06:21:39.763Z,97730.75
2023-04-16T06:24:07.361Z,97735.31
2023-04-16T06:26:34.832Z,97737.22
2023-04-16T06:29:02.456Z,97742.22
2023-04-16T06:31:30.885Z,97738.72
2023-04-16T06:33:58.436Z,97737.00
2023-04-16T06:36:27.476Z,97734.81
2023-04-16T06:38:55.060Z,97748.44
2023-04-16T06:41:25.343Z,97737.75
2023-04-16T06:43:52.872Z,97747.50
2023-04-16T06:46:20.364Z,97745.34
2023-04-16T06:48:47.898Z,97747.72
2023-04-16T06:51:15.444Z,97751.94
2023-04-16T06:53:42.977Z,97750.19
2023-04-16T06:56:10.756Z,97753.91
2023-04-16T06:58:38.231Z,97754.59
2023-04-16T07:01:05.883Z,97749.44
2023-04-16T07:03:33.468Z,97755.47
2023-04-16T07:06:01.184Z,97754.19
2023-04-16T07:08:28.808Z,97760.53
2023-04-16T07:10:56.339Z,97757.94
2023-04-16T07:13:24.192Z,97759.22
2023-04-16T07:15:51.739Z,97756.00
2023-04-16T07:18:20.812Z,97759.41
2023-04-16T07:20:48.706Z,97758.75
2023-04-16T07:23:16.265Z,97761.06
2023-04-16T07:25:44.515Z,97765.75
2023-04-16T07:28:12.228Z,97763.97
2023-04-16T07:30:39.744Z,97771.69
2023-04-16T07:33:07.529Z,97777.94
2023-04-16T07:35:35.671Z,97772.84
2023-04-16T07:38:03.155Z,97780.00
2023-04-16T07:40:30.679Z,97775.72
2023-04-16T07:42:58.233Z,97773.09
2023-04-16T07:45:25.770Z,97780.31
2023-04-16T07:47:53.330Z,97777.00
2023-04-16T07:50:20.888Z,97790.84
2023-04-16T07:52:48.536Z,97786.38
2023-04-16T07:55:16.113Z,97792.41
2023-04-16T07:57:43.578Z,97794.63
2023-04-16T08:00:11.760Z,97787.19
2023-04-16T08:02:43.601Z,97795.19
2023-04-16T08:05:12.483Z,97789.03
2023-04-16T08:07:40.023Z,97787.88
2023-04-16T08:10:08.540Z,97795.34
2023-04-16T08:12:36.123Z,97804.63
2023-04-16T08:15:03.861Z,97803.53
2023-04-16T08:17:31.400Z,97810.34
2023-04-16T08:19:58.939Z,97802.97
2023-04-16T08:22:26.621Z,97805.66
2023-04-16T08:24:54.237Z,97817.84
2023-04-16T08:27:21.703Z,97818.72
2023-04-16T08:29:49.306Z,97819.06
2023-04-16T08:32:16.887Z,97823.03
2023-04-16T08:34:44.419Z,97816.22
2023-04-16T08:37:11.889Z,97825.72
2023-04-16T08:39:39.426Z,97828.22
2023-04-16T08:42:23.518Z,97816.19
2023-04-16T08:44:58.154Z,97830.41
2023-04-16T08:47:28.776Z,97831.25
2023-04-16T08:49:58.835Z,97828.97
2023-04-16T08:52:30.677Z,97830.72
2023-04-16T08:55:11.891Z,97833.66
2023-04-16T08:57:59.461Z,97831.91
2023-04-16T09:00:28.368Z,97840.22
2023-04-16T09:02:56.345Z,97839.66
2023-04-16T09:05:25.743Z,97842.03
2023-04-16T09:07:56.565Z,97852.59
2023-04-16T09:10:26.898Z,97847.13
2023-04-16T09:12:58.490Z,97847.41
2023-04-16T09:15:26.483Z,97844.94
2023-04-16T09:17:56.351Z,97846.25
2023-04-16T09:20:23.936Z,97847.16
2023-04-16T09:22:51.482Z,97852.06
2023-04-16T09:25:22.560Z,97851.44
2023-04-16T09:27:51.294Z,97855.88
2023-04-16T09:30:23.016Z,97856.63
2023-04-16T09:33:13.226Z,97853.81
2023-04-16T09:35:52.561Z,97856.34
2023-04-16T09:38:20.608Z,97857.50
2023-04-16T09:40:48.188Z,97866.91
2023-04-16T09:43:18.622Z,97869.19
2023-04-16T09:45:53.847Z,97863.75
2023-04-16T09:48:33.015Z,97869.56
2023-04-16T09:51:01.188Z,97876.81
2023-04-16T09:53:30.967Z,97868.00
2023-04-16T09:56:04.845Z,97869.34
2023-04-16T09:58:33.084Z,97873.25
2023-04-16T10:01:12.140Z,97880.94
2023-04-16T10:03:41.095Z,97873.97
2023-04-16T10:06:19.623Z,97876.09
2023-04-16T10:08:52.839Z,97881.66
2023-04-16T10:11:21.271Z,97884.66
2023-04-16T10:13:49.495Z,97884.47
2023-04-16T10:16:17.897Z,97881.03
2023-04-16T10:18:46.855Z,97882.94
2023-04-16T10:21:16.221Z,97894.41
2023-04-16T10:23:44.495Z,97896.91
2023-04-16T10:26:12.322Z,97898.19
2023-04-16T10:28:41.491Z,97903.28
2023-04-16T10:31:09.949Z,97905.97
2023-04-16T10:33:41.982Z,97903.03
2023-04-16T10:36:24.749Z,97904.72
2023-04-16T10:38:56.622Z,97899.69
2023-04-16T10:41:26.707Z,97900.84
2023-04-16T10:44:09.964Z,97904.69
2023-04-16T10:46:40.584Z,97902.13
2023-04-16T10:49:20.187Z,97898.97
2023-04-16T10:51:57.653Z,97897.63
2023-04-16T10:54:28.079Z,97903.56
2023-04-16T10:57:20.490Z,97901.22
2023-04-16T10:59:49.289Z,97894.94
2023-04-16T11:02:19.216Z,97903.31
2023-04-16T11:04:49.170Z,97893.88
2023-04-16T11:07:34.988Z,97899.47
2023-04-16T11:10:13.423Z,97897.03
2023-04-16T11:12:48.485Z,97902.81
2023-04-16T11:15:19.115Z,97903.75
2023-04-16T11:17:50.783Z,97904.03
2023-04-16T11:20:26.482Z,97901.75
2023-04-16T11:22:57.211Z,97901.41
2023-04-16T11:25:31.427Z,97905.44
2023-04-16T11:27:59.114Z,97908.16
2023-04-16T11:30:40.003Z,97908.00
2023-04-16T11:33:11.952Z,97913.06
2023-04-16T11:35:40.404Z,97919.88
2023-04-16T11:38:07.967Z,97907.63
2023-04-16T11:40:36.269Z,97911.38
2023-04-16T11:43:14.751Z,97907.09
2023-04-16T11:46:01.631Z,97903.97
2023-04-16T11:48:53.039Z,97913.25
2023-04-16T11:51:21.732Z,97915.59
2023-04-16T11:53:54.088Z,97914.72
2023-04-16T11:56:29.457Z,97913.41
2023-04-16T11:59:12.698Z,97915.38
2023-04-16T12:01:42.756Z,97924.66
2023-04-16T12:04:10.647Z,97907.84
2023-04-16T12:06:38.365Z,97914.88
2023-04-16T12:09:27.536Z,97925.47
2023-04-16T12:11:55.182Z,97922.50
2023-04-16T12:14:23.598Z,97917.78
2023-04-16T12:16:51.449Z,97924.78
2023-04-16T12:19:19.250Z,97917.38
2023-04-16T12:21:49.928Z,97925.84
2023-04-16T12:24:20.831Z,97924.31
2023-04-16T12:26:57.303Z,97929.97
2023-04-16T12:29:28.017Z,97933.34
2023-04-16T12:31:55.691Z,97932.66
2023-04-16T12:34:30.648Z,97933.19
2023-04-16T12:37:10.926Z,97931.97
2023-04-16T12:39:38.405Z,97935.16
2023-04-16T12:42:09.704Z,97938.41
2023-04-16T12:44:37.271Z,97935.16
2023-04-16T12:47:05.469Z,97933.53
2023-04-16T12:49:33.194Z,97933.38
2023-04-16T12:53:16.828Z,97942.94
2023-04-16T12:55:45.375Z,97935.59
2023-04-16T12:58:12.857Z,97935.22
2023-04-16T13:00:40.472Z,97938.56
2023-04-16T13:03:08.272Z,97935.97
2023-04-16T13:05:36.019Z,97933.97
2023-04-16T13:08:03.610Z,97928.06
2023-04-16T13:10:31.140Z,97930.25
2023-04-16T13:12:58.668Z,97926.94
2023-04-16T13:15:26.255Z,97926.50
2023-04-16T13:17:53.743Z,97931.00
2023-04-16T13:20:23.860Z,97919.63
2023-04-16T13:22:51.977Z,97930.81
2023-04-16T13:25:19.584Z,97928.00
2023-04-16T13:27:47.076Z,97927.41
2023-04-16T13:30:14.969Z,97919.19
2023-04-16T13:32:42.560Z,97923.72
2023-04-16T13:35:11.777Z,97931.44
2023-04-16T13:37:39.320Z,97932.00
2023-04-16T13:40:08.437Z,97920.97
2023-04-16T13:42:54.373Z,97930.16
2023-04-16T13:45:22.028Z,97934.97
2023-04-16T13:47:49.783Z,97927.00
2023-04-16T13:50:20.362Z,97934.31
2023-04-16T13:52:47.836Z,97938.81
2023-04-16T13:55:19.028Z,97936.47
2023-04-16T13:57:47.682Z,97938.38
2023-04-16T14:00:16.701Z,97933.19
2023-04-16T14:02:45.923Z,97926.41
2023-04-16T14:05:13.783Z,97927.91
2023-04-16T14:07:41.356Z,97931.00
2023-04-16T14:10:09.601Z,97935.88
2023-04-16T14:12:40.564Z,97930.56
2023-04-16T14:15:09.656Z,97933.19
2023-04-16T14:17:37.661Z,97929.84
2023-04-16T14:20:06.787Z,97938.91
2023-04-16T14:22:34.518Z,97935.25
2023-04-16T14:25:02.120Z,97934.31
2023-04-16T14:27:30.965Z,97933.41
2023-04-16T14:29:58.652Z,97929.34
2023-04-16T14:32:26.860Z,97925.81
2023-04-16T14:34:54.709Z,97935.66
2023-04-16T14:37:22.311Z,97928.56
2023-04-16T14:39:50.635Z,97937.50
2023-04-16T14:42:18.160Z,97931.53
2023-04-16T14:44:45.824Z,97934.44
2023-04-16T14:47:16.126Z,97939.75
2023-04-16T14:49:43.665Z,97942.97
2023-04-16T14:52:11.467Z,97933.28
2023-04-16T14:54:38.972Z,97942.06
2023-04-16T14:57:06.517Z,97931.66
2023-04-16T14:59:34.098Z,97939.41
2023-04-16T15:02:01.704Z,97939.84
2023-04-16T15:04:30.172Z,97940.53
2023-04-16T15:06:59.035Z,97944.09
2023-04-16T15:09:27.471Z,97938.06
2023-04-16T15:11:55.054Z,97940.09
2023-04-16T15:14:22.628Z,97937.69
2023-04-16T15:16:50.282Z,97936.06
2023-04-16T15:19:17.926Z,97944.22
2023-04-16T15:21:47.491Z,97937.81
2023-04-16T15:24:16.180Z,97949.69
2023-04-16T15:26:43.670Z,97947.16
2023-04-16T15:29:11.801Z,97944.34
2023-04-16T15:31:39.286Z,97948.53
2023-04-16T15:34:07.240Z,97942.28
2023-04-16T15:36:34.713Z,97945.00
2023-04-16T15:39:02.276Z,97952.88
2023-04-16T15:41:31.783Z,97950.88
2023-04-16T15:43:59.299Z,97948.06
2023-04-16T15:46:26.929Z,97954.75
2023-04-16T15:48:54.438Z,97952.97
2023-04-16T15:51:22.436Z,97949.56
2023-04-16T15:53:50.461Z,97954.53
2023-04-16T15:56:18.000Z,97952.03
2023-04-16T15:58:45.589Z,97951.38
2023-04-16T16:01:13.295Z,97951.25
2023-04-16T16:03:41.021Z,97949.50
2023-04-16T16:06:08.953Z,97949.69
2023-04-16T16:08:38.111Z,97954.44
2023-04-16T16:11:05.640Z,97962.38
2023-04-16T16:13:33.136Z,97953.91
2023-04-16T16:16:00.845Z,97963.84
2023-04-16T16:18:29.366Z,97952.44
2023-04-16T16:20:58.130Z,97965.72
2023-04-16T16:23:25.926Z,97962.06
2023-04-16T16:25:53.439Z,97968.88
2023-04-16T16:28:21.148Z,97966.25
2023-04-16T16:30:50.785Z,97965.38
2023-04-16T16:33:18.292Z,97962.41
2023-04-16T16:35:45.813Z,97967.16
2023-04-16T16:38:13.368Z,97966.44
2023-04-16T16:40:40.930Z,97969.97
2023-04-16T16:43:08.531Z,97966.97
2023-04-16T16:45:36.172Z,97969.84
2023-04-16T16:48:03.960Z,97962.94
2023-04-16T16:50:32.800Z,97966.69
2023-04-16T16:53:00.681Z,97962.53
2023-04-16T16:55:28.240Z,97967.56
2023-04-16T16:57:56.098Z,97969.03
2023-04-16T17:00:23.613Z,97969.06
2023-04-16T17:02:51.963Z,97979.31
2023-04-16T17:05:19.903Z,97974.25
2023-04-16T17:07:47.407Z,97975.06
2023-04-16T17:10:24.363Z,97981.03
2023-04-16T17:12:51.915Z,97973.59
2023-04-16T17:15:21.807Z,97971.00
2023-04-16T17:17:49.644Z,97972.25
2023-04-16T17:20:17.441Z,97982.47
2023-04-16T17:22:44.937Z,97986.38
2023-04-16T17:25:12.592Z,97981.06
2023-04-16T17:27:40.103Z,97977.72
2023-04-16T17:30:08.386Z,97980.47
2023-04-16T17:32:36.042Z,97986.13
2023-04-16T17:35:04.321Z,97982.59
2023-04-16T17:37:32.369Z,97989.78
2023-04-16T17:39:59.982Z,97993.63
2023-04-16T17:42:27.532Z,97990.56
2023-04-16T17:44:55.040Z,97989.59
2023-04-16T17:47:22.594Z,97992.22
2023-04-16T17:49:54.466Z,97989.75
2023-04-16T17:52:22.832Z,97987.75
2023-04-16T17:54:50.460Z,97995.72
2023-04-16T17:57:17.983Z,97998.31
2023-04-16T17:59:45.531Z,98001.75
2023-04-16T18:02:13.182Z,97997.66
2023-04-16T18:04:40.849Z,98005.81
2023-04-16T18:07:08.405Z,98001.22
2023-04-16T18:09:36.472Z,98013.75
2023-04-16T18:12:04.235Z,98011.41
2023-04-16T18:14:33.997Z,98004.53
2023-04-16T18:17:02.562Z,98013.31
2023-04-16T18:19:31.868Z,98011.25
2023-04-16T18:21:59.363Z,98019.22
2023-04-16T18:24:27.073Z,98014.81
2023-04-16T18:26:55.312Z,98024.28
2023-04-16T18:29:25.084Z,98018.50
2023-04-16T18:31:55.106Z,98020.75
2023-04-16T18:34:23.464Z,98020.22
2023-04-16T18:36:51.397Z,98024.50
2023-04-16T18:39:19.082Z,98024.41
2023-04-16T18:41:47.761Z,98024.44
2023-04-16T18:44:16.014Z,98034.00
2023-04-16T18:46:43.678Z,98032.81
2023-04-16T18:49:11.385Z,98036.66
2023-04-16T18:51:39.203Z,98038.19
2023-04-16T18:54:06.771Z,98036.34
2023-04-16T18:56:34.386Z,98040.09
2023-04-16T18:59:02.054Z,98047.13
2023-04-16T19:01:29.740Z,98049.22
2023-04-16T19:03:57.486Z,98045.81
2023-04-16T19:06:25.111Z,98051.25
2023-04-16T19:08:55.156Z,98057.19
2023-04-16T19:11:22.749Z,98057.75
2023-04-16T19:13:50.340Z,98056.06
2023-04-16T19:16:17.924Z,98052.72
2023-04-16T19:18:45.537Z,98064.81
2023-04-16T19:21:13.047Z,98057.66
2023-04-16T19:23:40.538Z,98062.97
2023-04-16T19:26:08.098Z,98056.81
2023-04-16T19:28:35.621Z,98060.56
2023-04-16T19:31:03.115Z,98067.25
2023-04-16T19:33:31.230Z,98059.69
2023-04-16T19:35:58.803Z,98059.00
2023-04-16T19:38:26.403Z,98061.56
2023-04-16T19:40:54.043Z,98064.91
2023-04-16T19:43:22.074Z,98065.97
2023-04-16T19:45:53.441Z,98057.53
2023-04-16T19:48:21.438Z,98069.00
2023-04-16T19:50:49.184Z,98065.50
2023-04-16T19:53:19.194Z,98062.91
2023-04-16T19:55:46.680Z,98067.75
2023-04-16T19:58:14.524Z,98058.97
2023-04-16T20:00:42.201Z,98070.59
2023-04-16T20:03:09.941Z,98073.34
2023-04-16T20:05:37.437Z,98070.22
2023-04-16T20:08:05.362Z,98067.53
2023-04-16T20:10:32.932Z,98069.03
2023-04-16T20:13:00.714Z,98077.00
2023-04-16T20:15:28.490Z,98075.94
2023-04-16T20:17:56.352Z,98072.56
2023-04-16T20:20:23.954Z,98076.47
2023-04-16T20:22:51.520Z,98076.00
2023-04-16T20:25:19.287Z,98074.09
2023-04-16T20:27:46.937Z,98073.28
2023-04-16T20:30:14.697Z,98069.69
2023-04-16T20:32:42.233Z,98074.69
2023-04-16T20:35:11.398Z,98076.22
2023-04-16T20:37:41.836Z,98075.59
2023-04-16T20:40:10.569Z,98079.59
2023-04-16T20:42:38.093Z,98075.91
2023-04-16T20:45:07.138Z,98066.25
2023-04-16T20:47:34.924Z,98071.97
2023-04-16T20:50:03.634Z,98063.41
2023-04-16T20:52:31.112Z,98073.22
2023-04-16T20:54:58.628Z,98072.22
2023-04-16T20:57:27.958Z,98063.88
2023-04-16T20:59:56.333Z,98064.50
2023-04-16T21:02:24.205Z,98067.28
2023-04-16T21:04:52.045Z,98064.34
2023-04-16T21:07:19.666Z,98064.75
2023-04-16T21:09:47.191Z,98053.44
2023-04-16T21:12:14.666Z,98060.72
2023-04-16T21:14:42.200Z,98054.75
2023-04-16T21:17:09.672Z,98058.31
2023-04-16T21:19:37.214Z,98052.47
2023-04-16T21:22:04.821Z,98057.34
2023-04-16T21:24:32.514Z,98056.44
2023-04-16T21:27:00.041Z,98057.28
2023-04-16T21:29:27.905Z,98060.25
2023-04-16T21:31:55.903Z,98056.44
2023-04-16T21:34:23.519Z,98061.94
2023-04-16T21:36:51.034Z,98062.03
2023-04-16T21:39:19.754Z,98056.84
2023-04-16T21:41:47.709Z,98061.09
2023-04-16T21:44:15.439Z,98057.75
2023-04-16T21:46:42.929Z,98058.25
2023-04-16T21:49:10.648Z,98058.63
2023-04-16T21:51:40.072Z,98063.97
2023-04-16T21:54:08.333Z,98067.03
2023-04-16T21:56:35.890Z,98055.84
2023-04-16T21:59:03.562Z,98059.19
2023-04-16T22:01:31.100Z,98060.41
2023-04-16T22:03:58.835Z,98055.88
2023-04-16T22:06:27.088Z,98054.50
2023-04-16T22:08:54.612Z,98063.66
2023-04-16T22:11:22.492Z,98055.34
2023-04-16T22:13:50.137Z,98060.97
2023-04-16T22:16:17.774Z,98058.16
2023-04-16T22:18:46.253Z,98055.91
2023-04-16T22:21:13.820Z,98059.03
2023-04-16T22:23:41.332Z,98052.25
2023-04-16T22:26:09.079Z,98055.13
2023-04-16T22:28:36.616Z,98050.09
2023-04-16T22:31:04.320Z,98050.16
2023-04-16T22:33:31.834Z,98053.53
2023-04-16T22:36:00.132Z,98055.28
2023-04-16T22:38:27.730Z,98049.63
2023-04-16T22:40:55.249Z,98048.09
2023-04-16T22:43:22.902Z,98051.09
2023-04-16T22:45:50.408Z,98048.03
2023-04-16T22:48:18.635Z,98049.78
2023-04-16T22:50:48.423Z,98048.19
2023-04-16T22:53:16.118Z,98046.81
2023-04-16T22:55:43.688Z,98044.00
2023-04-16T22:58:11.227Z,98042.72
2023-04-16T23:00:39.186Z,98047.91
2023-04-16T23:03:07.156Z,98039.28
2023-04-16T23:05:34.934Z,98046.66
2023-04-16T23:08:02.520Z,98047.50
2023-04-16T23:10:30.111Z,98048.50
2023-04-16T23:12:57.687Z,98051.00
2023-04-16T23:15:25.259Z,98040.00
2023-04-16T23:17:52.850Z,98041.03
2023-04-16T23:20:20.397Z,98043.34
2023-04-16T23:22:48.022Z,98049.84
2023-04-16T23:25:15.816Z,98045.03
2023-04-16T23:27:43.319Z,98048.06
2023-04-16T23:30:11.384Z,98047.84
2023-04-16T23:32:39.065Z,98042.38
2023-04-16T23:35:07.357Z,98039.38
2023-04-16T23:37:34.859Z,98042.72
2023-04-16T23:40:03.877Z,98043.84
2023-04-16T23:42:31.366Z,98039.03
2023-04-16T23:44:58.990Z,98037.94
2023-04-16T23:47:26.522Z,98038.44
2023-04-16T23:49:54.054Z,98038.28
2023-04-16T23:52:21.544Z,98041.78
2023-04-16T23:54:49.114Z,98038.50
2023-04-16T23:57:16.655Z,98038.78
2023-04-16T23:59:44.174Z,98039.28
